createdAt,value
2017-10-06T00:01:11.822Z,40.17
2017-10-06T00:03:39.119Z,40.20
2017-10-06T00:06:06.318Z,40.22
2017-10-06T00:08:33.529Z,40.13
2017-10-06T00:11:00.784Z,40.32
2017-10-06T00:13:27.987Z,40.19
2017-10-06T00:15:55.229Z,40.20
2017-10-06T00:18:22.485Z,40.22
2017-10-06T00:20:49.714Z,40.23
2017-10-06T00:23:17.022Z,40.19
2017-10-06T00:25:44.579Z,40.19
2017-10-06T00:28:11.883Z,40.19
2017-10-06T00:30:39.156Z,40.26
2017-10-06T00:33:06.411Z,40.19
2017-10-06T00:35:33.834Z,40.21
2017-10-06T00:38:01.040Z,40.23
2017-10-06T00:40:28.488Z,40.19
2017-10-06T00:42:55.703Z,40.24
2017-10-06T00:45:22.928Z,40.21
2017-10-06T00:47:50.209Z,40.24
2017-10-06T00:50:17.603Z,40.20
2017-10-06T00:52:44.857Z,40.19
2017-10-06T00:55:12.204Z,40.27
2017-10-06T00:57:39.486Z,40.26
2017-10-06T01:00:06.687Z,40.20
2017-10-06T01:02:34.006Z,40.00
2017-10-06T01:05:01.399Z,39.88
2017-10-06T01:07:28.610Z,39.74
2017-10-06T01:09:55.808Z,39.82
2017-10-06T01:12:23.062Z,39.96
2017-10-06T01:14:50.275Z,39.98
2017-10-06T01:17:17.531Z,40.06
2017-10-06T01:19:44.731Z,40.10
2017-10-06T01:22:11.946Z,40.27
2017-10-06T01:24:39.246Z,40.46
2017-10-06T01:27:06.467Z,40.48
2017-10-06T01:29:33.625Z,40.31
2017-10-06T01:32:00.858Z,40.63
2017-10-06T01:34:28.100Z,40.63
2017-10-06T01:36:55.365Z,40.66
2017-10-06T01:39:22.579Z,40.68
2017-10-06T01:41:49.744Z,40.64
2017-10-06T01:44:16.959Z,40.74
2017-10-06T01:46:44.201Z,40.81
2017-10-06T01:49:11.403Z,40.89
2017-10-06T01:51:38.647Z,40.89
2017-10-06T01:54:05.932Z,40.98
2017-10-06T01:56:33.107Z,40.92
2017-10-06T01:59:00.308Z,40.98
2017-10-06T02:01:27.609Z,40.97
2017-10-06T02:03:54.793Z,41.14
2017-10-06T02:06:22.110Z,41.01
2017-10-06T02:08:49.415Z,41.16
2017-10-06T02:11:16.707Z,41.09
2017-10-06T02:13:43.917Z,41.06
2017-10-06T02:16:11.095Z,41.09
2017-10-06T02:18:38.335Z,41.04
2017-10-06T02:21:05.525Z,41.09
2017-10-06T02:23:32.742Z,41.15
2017-10-06T02:26:00.004Z,41.09
2017-10-06T02:28:27.253Z,41.24
2017-10-06T02:30:54.463Z,41.19
2017-10-06T02:33:21.651Z,41.14
2017-10-06T02:35:48.960Z,41.21
2017-10-06T02:38:16.163Z,41.31
2017-10-06T02:40:43.414Z,41.28
2017-10-06T02:43:10.663Z,41.29
2017-10-06T02:45:37.847Z,41.17
2017-10-06T02:48:05.116Z,41.32
2017-10-06T02:50:32.374Z,41.34
2017-10-06T02:52:59.677Z,41.35
2017-10-06T02:55:26.958Z,41.30
2017-10-06T02:57:54.213Z,41.30
2017-10-06T03:00:21.432Z,41.34
2017-10-06T03:02:48.845Z,41.50
2017-10-06T03:05:16.062Z,41.44
2017-10-06T03:07:43.252Z,41.40
2017-10-06T03:10:10.450Z,41.39
2017-10-06T03:12:38.606Z,41.44
2017-10-06T03:15:05.823Z,41.45
2017-10-06T03:17:33.202Z,41.39
2017-10-06T03:20:00.364Z,41.39
2017-10-06T03:22:27.534Z,41.31
2017-10-06T03:24:54.771Z,41.40
2017-10-06T03:27:21.986Z,41.29
2017-10-06T03:29:49.193Z,41.34
2017-10-06T03:32:16.441Z,41.33
2017-10-06T03:34:43.727Z,41.35
2017-10-06T03:37:11.027Z,41.41
2017-10-06T03:39:38.349Z,41.35
2017-10-06T03:42:05.629Z,41.48
2017-10-06T03:44:32.807Z,41.32
2017-10-06T03:47:00.008Z,41.11
2017-10-06T03:49:27.229Z,41.10
2017-10-06T03:51:54.422Z,41.07
2017-10-06T03:54:21.618Z,41.02
2017-10-06T03:56:48.899Z,40.97
2017-10-06T03:59:16.112Z,40.97
2017-10-06T04:01:43.349Z,40.82
2017-10-06T04:04:10.505Z,40.76
2017-10-06T04:06:37.811Z,40.65
2017-10-06T04:09:05.055Z,40.62
2017-10-06T04:11:32.308Z,40.61
2017-10-06T04:13:59.641Z,40.50
2017-10-06T04:16:26.868Z,40.62
2017-10-06T04:18:54.286Z,40.57
2017-10-06T04:21:21.536Z,40.51
2017-10-06T04:23:48.986Z,40.53
2017-10-06T04:26:16.399Z,40.50
2017-10-06T04:28:43.736Z,40.51
2017-10-06T04:31:11.066Z,40.49
2017-10-06T04:33:38.339Z,40.55
2017-10-06T04:36:05.568Z,40.51
2017-10-06T04:38:32.864Z,40.53
2017-10-06T04:41:00.124Z,40.50
2017-10-06T04:43:27.393Z,40.48
2017-10-06T04:45:54.838Z,40.38
2017-10-06T04:48:22.087Z,40.39
2017-10-06T04:50:49.389Z,40.39
2017-10-06T04:53:16.806Z,40.33
2017-10-06T04:55:44.038Z,40.29
2017-10-06T04:58:11.400Z,40.03
2017-10-06T05:00:38.674Z,40.29
2017-10-06T05:03:06.020Z,40.19
2017-10-06T05:05:34.325Z,40.15
2017-10-06T05:08:01.731Z,40.20
2017-10-06T05:10:30.692Z,40.12
2017-10-06T05:12:59.658Z,40.25
2017-10-06T05:15:28.285Z,40.18
2017-10-06T05:17:55.744Z,40.11
2017-10-06T05:20:24.180Z,40.04
2017-10-06T05:25:24.621Z,40.20
2017-10-06T05:27:52.514Z,40.22
2017-10-06T05:30:19.828Z,40.73
2017-10-06T05:37:55.207Z,40.52
2017-10-06T05:40:23.213Z,40.42
2017-10-06T05:45:25.706Z,40.48
2017-10-06T05:50:26.303Z,40.04
2017-10-06T05:55:25.449Z,39.68
2017-10-06T05:57:54.544Z,39.74
2017-10-06T06:02:57.133Z,39.82
2017-10-06T06:07:58.740Z,39.67
2017-10-06T06:10:26.238Z,39.56
2017-10-06T06:12:53.807Z,39.41
2017-10-06T06:17:54.078Z,39.42
2017-10-06T06:20:21.585Z,39.36
2017-10-06T06:22:51.052Z,39.34
2017-10-06T06:43:13.598Z,38.94
2017-10-06T06:45:42.909Z,39.03
2017-10-06T06:53:18.059Z,38.78
2017-10-06T07:03:21.957Z,38.77
2017-10-06T07:05:52.643Z,38.78
2017-10-06T07:16:01.753Z,38.95
2017-10-06T07:26:09.325Z,39.02
2017-10-06T07:28:37.434Z,38.95
2017-10-06T07:38:44.726Z,38.82
2017-10-06T07:56:30.859Z,38.70
2017-10-06T07:58:58.673Z,38.58
2017-10-06T08:01:29.707Z,38.20
2017-10-06T08:16:43.343Z,38.77
2017-10-06T08:47:33.045Z,37.91
2017-10-06T10:17:39.259Z,37.11
2017-10-06T10:29:00.741Z,37.10
2017-10-06T10:47:39.832Z,36.18
2017-10-06T12:06:44.826Z,35.37
2017-10-06T12:09:15.960Z,35.03
2017-10-06T12:17:07.365Z,35.32
2017-10-06T12:51:33.801Z,34.84
2017-10-06T13:04:19.639Z,34.99
2017-10-06T13:14:48.990Z,34.70
2017-10-06T13:17:20.773Z,35.34
2017-10-06T13:27:42.846Z,35.36
2017-10-06T13:30:10.413Z,35.29
2017-10-06T13:32:37.693Z,35.55
2017-10-06T13:35:14.343Z,36.01
2017-10-06T13:37:49.041Z,35.77
2017-10-06T13:40:27.234Z,35.68
2017-10-06T13:45:29.449Z,35.92
2017-10-06T13:47:57.323Z,35.89
2017-10-06T13:50:37.523Z,36.21
2017-10-06T13:53:06.542Z,36.30
2017-10-06T13:55:36.497Z,36.29
2017-10-06T14:03:12.743Z,36.70
2017-10-06T14:05:40.475Z,36.75
2017-10-06T14:08:07.780Z,36.99
2017-10-06T14:10:38.978Z,36.91
2017-10-06T14:13:06.363Z,36.63
2017-10-06T14:15:37.942Z,36.74
2017-10-06T14:18:07.616Z,36.86
2017-10-06T14:23:23.199Z,37.04
2017-10-06T14:33:29.508Z,37.04
2017-10-06T14:35:56.895Z,36.90
2017-10-06T14:38:24.510Z,36.85
2017-10-06T14:40:52.958Z,36.81
2017-10-06T14:43:21.914Z,37.08
2017-10-06T14:45:49.313Z,37.44
2017-10-06T14:48:17.509Z,36.99
2017-10-06T14:50:44.743Z,37.19
2017-10-06T14:53:12.084Z,37.47
2017-10-06T15:00:47.246Z,37.27
2017-10-06T15:03:15.079Z,37.71
2017-10-06T15:05:42.325Z,37.58
2017-10-06T15:08:09.559Z,37.43
2017-10-06T15:10:36.977Z,37.67
2017-10-06T15:13:04.436Z,37.41
2017-10-06T15:15:39.649Z,37.36
2017-10-06T15:18:06.872Z,37.15
2017-10-06T15:23:07.550Z,37.29
2017-10-06T15:25:37.316Z,37.12
2017-10-06T15:30:38.382Z,37.74
2017-10-06T15:33:05.993Z,37.37
2017-10-06T15:35:33.601Z,37.35
2017-10-06T15:38:01.915Z,37.56
2017-10-06T15:40:29.326Z,37.51
2017-10-06T15:42:56.594Z,37.42
2017-10-06T15:45:27.517Z,37.64
2017-10-06T15:50:27.190Z,37.52
2017-10-06T15:52:54.456Z,37.71
2017-10-06T15:55:21.670Z,37.98
2017-10-06T15:57:48.954Z,38.19
2017-10-06T16:00:16.302Z,37.97
2017-10-06T16:02:43.551Z,38.14
2017-10-06T16:05:11.732Z,37.83
2017-10-06T16:07:39.588Z,38.31
2017-10-06T16:10:28.805Z,38.27
2017-10-06T16:12:56.030Z,37.96
2017-10-06T16:15:23.283Z,38.07
2017-10-06T16:17:50.541Z,37.55
2017-10-06T16:20:17.737Z,38.07
2017-10-06T16:22:46.863Z,38.28
2017-10-06T16:25:21.353Z,38.06
2017-10-06T16:27:48.631Z,38.21
2017-10-06T16:30:15.980Z,38.04
2017-10-06T16:32:43.236Z,38.17
2017-10-06T16:35:10.551Z,37.87
2017-10-06T16:37:37.835Z,37.87
2017-10-06T16:40:05.130Z,37.90
2017-10-06T16:42:32.679Z,38.06
2017-10-06T16:44:59.970Z,37.78
2017-10-06T16:47:27.265Z,37.70
2017-10-06T16:50:11.808Z,37.87
2017-10-06T16:52:39.059Z,37.66
2017-10-06T16:55:06.311Z,37.58
2017-10-06T16:57:33.570Z,37.68
2017-10-06T17:00:00.988Z,37.62
2017-10-06T17:02:29.143Z,37.52
2017-10-06T17:04:56.547Z,37.64
2017-10-06T17:07:23.895Z,37.62
2017-10-06T17:09:51.280Z,37.56
2017-10-06T17:12:18.820Z,38.00
2017-10-06T17:14:46.153Z,37.81
2017-10-06T17:17:13.431Z,37.86
2017-10-06T17:19:40.733Z,37.83
2017-10-06T17:22:08.088Z,37.93
2017-10-06T17:24:35.412Z,38.08
2017-10-06T17:27:02.736Z,37.86
2017-10-06T17:29:30.049Z,37.74
2017-10-06T17:31:57.308Z,38.07
2017-10-06T17:49:42.017Z,37.94
2017-10-06T17:54:47.175Z,37.98
2017-10-06T17:57:14.447Z,38.28
2017-10-06T17:59:41.699Z,37.49
2017-10-06T18:02:08.946Z,37.31
2017-10-06T18:04:36.440Z,36.98
2017-10-06T18:07:03.643Z,36.95
2017-10-06T18:09:30.895Z,36.78
2017-10-06T18:11:58.123Z,36.50
2017-10-06T18:14:25.445Z,36.57
2017-10-06T18:16:52.688Z,36.55
2017-10-06T18:19:19.999Z,36.41
2017-10-06T18:21:47.747Z,36.47
2017-10-06T18:24:15.153Z,36.34
2017-10-06T18:26:42.624Z,36.38
2017-10-06T18:29:09.866Z,36.39
2017-10-06T18:31:37.147Z,36.34
2017-10-06T18:34:04.473Z,36.40
2017-10-06T18:36:31.948Z,36.46
2017-10-06T18:38:59.301Z,36.47
2017-10-06T18:41:26.601Z,36.54
2017-10-06T18:43:53.966Z,36.58
2017-10-06T18:46:21.209Z,36.63
2017-10-06T18:48:48.523Z,36.66
2017-10-06T18:51:15.892Z,36.72
2017-10-06T18:53:43.220Z,36.85
2017-10-06T18:56:10.426Z,36.77
2017-10-06T18:58:37.744Z,36.83
2017-10-06T19:01:05.031Z,36.84
2017-10-06T19:03:32.376Z,36.84
2017-10-06T19:05:59.635Z,36.92
2017-10-06T19:08:27.060Z,36.88
2017-10-06T19:10:54.377Z,36.96
2017-10-06T19:13:21.608Z,37.01
2017-10-06T19:15:48.827Z,36.94
2017-10-06T19:18:16.095Z,36.91
2017-10-06T19:20:43.330Z,36.98
2017-10-06T19:23:10.523Z,36.98
2017-10-06T19:25:37.760Z,36.83
2017-10-06T19:28:05.146Z,36.89
2017-10-06T19:30:32.445Z,36.87
2017-10-06T19:32:59.739Z,36.95
2017-10-06T19:35:26.944Z,36.98
2017-10-06T19:37:54.156Z,36.99
2017-10-06T19:40:34.454Z,36.99
2017-10-06T19:43:01.706Z,37.03
2017-10-06T19:45:28.911Z,37.09
2017-10-06T19:47:56.119Z,37.06
2017-10-06T19:50:23.596Z,37.09
2017-10-06T19:52:50.856Z,37.04
2017-10-06T19:55:18.072Z,37.11
2017-10-06T19:57:45.327Z,37.14
2017-10-06T20:00:27.279Z,37.20
2017-10-06T20:02:54.640Z,37.19
2017-10-06T20:05:21.888Z,37.24
2017-10-06T20:07:49.167Z,37.22
2017-10-06T20:10:16.423Z,37.36
2017-10-06T20:12:43.814Z,37.21
2017-10-06T20:15:11.017Z,37.25
2017-10-06T20:17:38.478Z,37.28
2017-10-06T20:20:05.915Z,37.21
2017-10-06T20:22:33.350Z,37.23
2017-10-06T20:25:00.773Z,37.30
2017-10-06T20:27:28.020Z,37.28
2017-10-06T20:29:55.249Z,37.28
2017-10-06T20:32:22.638Z,37.31
2017-10-06T20:34:49.955Z,37.28
2017-10-06T20:37:17.325Z,37.21
2017-10-06T20:39:44.492Z,37.33
2017-10-06T20:42:11.715Z,37.29
2017-10-06T20:44:39.093Z,37.32
2017-10-06T20:47:06.391Z,37.33
2017-10-06T20:49:33.696Z,37.25
2017-10-06T20:52:01.039Z,37.31
2017-10-06T20:54:36.784Z,37.25
2017-10-06T20:57:04.124Z,37.28
2017-10-06T20:59:31.378Z,37.29
2017-10-06T21:01:58.647Z,37.24
2017-10-06T21:04:26.113Z,37.29
2017-10-06T21:06:53.391Z,37.21
2017-10-06T21:09:20.591Z,37.35
2017-10-06T21:11:47.941Z,37.22
2017-10-06T21:14:15.173Z,37.19
2017-10-06T21:28:01.073Z,37.11
2017-10-06T21:30:41.743Z,37.20
2017-10-06T21:33:08.940Z,37.13
2017-10-06T21:35:36.359Z,37.11
2017-10-06T21:38:03.612Z,37.07
2017-10-06T21:40:31.076Z,37.22
2017-10-06T21:42:58.283Z,37.16
2017-10-06T21:45:25.514Z,37.04
2017-10-06T21:47:52.855Z,37.19
2017-10-06T21:50:20.386Z,37.16
2017-10-06T21:52:47.734Z,37.08
2017-10-06T21:55:15.004Z,37.25
2017-10-06T21:57:42.329Z,36.98
2017-10-06T22:00:09.548Z,37.24
2017-10-06T22:02:36.750Z,37.21
2017-10-06T22:05:04.094Z,37.06
2017-10-06T22:07:31.344Z,37.21
2017-10-06T22:09:58.810Z,37.26
2017-10-06T22:12:26.035Z,37.19
2017-10-06T22:14:53.275Z,37.10
2017-10-06T22:17:20.574Z,37.24
2017-10-06T22:19:47.773Z,37.20
2017-10-06T22:22:15.021Z,37.29
2017-10-06T22:24:42.596Z,37.25
2017-10-06T22:27:09.818Z,37.33
2017-10-06T22:29:37.306Z,37.20
2017-10-06T22:32:04.527Z,37.23
2017-10-06T22:34:31.797Z,37.21
2017-10-06T22:36:59.235Z,37.32
2017-10-06T22:39:26.403Z,37.13
2017-10-06T22:41:53.833Z,37.17
2017-10-06T22:44:21.025Z,37.38
2017-10-06T22:46:48.413Z,37.20
2017-10-06T22:49:15.659Z,37.45
2017-10-06T22:51:42.981Z,37.31
2017-10-06T22:54:10.341Z,37.38
2017-10-06T22:56:37.733Z,37.41
2017-10-06T22:59:04.958Z,37.53
2017-10-06T23:01:32.259Z,37.63
2017-10-06T23:03:59.550Z,37.67
2017-10-06T23:06:26.774Z,37.70
2017-10-06T23:08:54.001Z,37.75
2017-10-06T23:11:21.173Z,37.88
2017-10-06T23:13:48.660Z,37.85
2017-10-06T23:16:16.104Z,37.97
2017-10-06T23:18:43.591Z,37.98
2017-10-06T23:21:10.833Z,38.05
2017-10-06T23:23:38.158Z,38.09
2017-10-06T23:26:05.449Z,38.08
2017-10-06T23:28:32.739Z,38.17
2017-10-06T23:31:00.245Z,38.19
2017-10-06T23:33:27.430Z,38.21
2017-10-06T23:35:54.893Z,38.31
2017-10-06T23:38:22.103Z,38.27
2017-10-06T23:40:49.540Z,38.31
2017-10-06T23:43:16.723Z,38.43
2017-10-06T23:45:44.217Z,38.56
2017-10-06T23:48:11.402Z,38.50
2017-10-06T23:50:38.600Z,38.49
2017-10-06T23:53:05.822Z,38.56
2017-10-06T23:55:33.418Z,38.41
2017-10-06T23:58:00.627Z,38.52
